Terminal Aerodrome Forecast
Issued by NWS

Home | Current Version | Previous Version | Text Only | Print | Product List | Glossary On
Versions: 1 2 3 4 5 6 7 8 9 10 11 12 13 14
331
FTUS42 KGSP 271720
TAFAND
TAF
KAND 271720Z 2718/2818 14005KT P6SM SCT060
     FM272000 11005KT P6SM VCTS SCT050CB
     FM280000 09004KT P6SM FEW050 SCT250
     FM281100 06005KT P6SM FEW020 SCT050
     FM281600 06007KT P6SM FEW050 SCT200=

USA.gov is the U.S. government's official web portal to all federal, state and local government web resources and services.